Accueil
METAR-TAF:

METAR-TAF

Aéroports :

Castres, France

Aéroport de Castres-Mazamet

latitude: 43-33-25N, longitude: 2-17-21E, altitude: 239 m

Observation

Le bulletin a été fait il y a 16 minutes, à 00:30 UTC
Vent 3 kt de nord-est
Température 12°C
Humidité 94%
Pression 1022 hPa
Visibilité: 3800 m
brume

METAR: LFCK 240030Z AUTO 04003KT 3800 R14/1400U BR NSC 12/11 Q1022

Heure: 02:46 (00:46 UTC)

Prévision

Le bulletin a été fait il y a 6 heures et 29 minutes, à 18:17 UTC
Prévision valable du 23 à 18 UTC au 24 à 03 UTC
Vent 4 kt de ouest
Visibilité 10 km ou plus
pas de nuages en-dessous de 1500 mètres et pas de cumulonimbus.
Temporairement
du 23 à 18 UTC au 23 à 20 UTC
Visibilité: 4000 m
Nuages fragmentés à une hauteur de 3000 ft, Cumulonimbus.
orage, pluie faible

TAF: LFCK 231817Z 2318/2403 27004KT CAVOK TEMPO 2318/2320 4000 -TSRA BKN030CB

Observations et prévisions météorologiques de plus de 4000 aéroports (messages METAR et TAF).

Les stations disponibles sont représentées par des disques jaunes et rouges sur la carte.

Passer la souris dessus pour voir le nom de la station.

Cliquer dessus pour voir les observations et prévisions météorologiques.

Pour changer de carte: cliquez sur les boutons verts avec une croix noire pour zoomer, sur le bouton vert avec un tiret pour effectuer un zoom arrière, ou sur les flèches vertes pour les cartes adjacentes.


METAR-TAF: